Time;durP1;ratioP1;P1;durP2;ratioP2;P2;SDS_P1;SDS_P2;PMS_P1;PMS_P2;Temp;Humidity;BMP_temperature;BMP_pressure;BME280_temperature;BME280_humidity;BME280_pressure;Samples;Min_cycle;Max_cycle;Signal;HPM_P1;HPM_P2
2022/06/25 00:00:40;;;;;;;3.38;1.08;;;16.30;99.90;;;;;;5091229;28;20036;-69
2022/06/25 00:03:07;;;;;;;1.88;1.20;;;16.20;99.90;;;;;;5057736;28;20040;-69
2022/06/25 00:05:34;;;;;;;3.90;1.05;;;16.20;99.90;;;;;;5093290;28;20044;-69
2022/06/25 00:08:03;;;;;;;7.25;1.33;;;16.10;99.90;;;;;;5091159;28;20039;-69
2022/06/25 00:10:30;;;;;;;2.83;1.17;;;15.90;99.90;;;;;;5090664;28;20098;-69
2022/06/25 00:12:56;;;;;;;4.97;1.40;;;15.60;99.90;;;;;;5091245;28;20048;-69
2022/06/25 00:15:23;;;;;;;3.95;1.75;;;15.40;99.90;;;;;;5090985;28;20081;-69
2022/06/25 00:17:50;;;;;;;3.40;1.20;;;15.40;99.90;;;;;;5090829;28;20526;-69
2022/06/25 00:20:18;;;;;;;4.13;1.33;;;15.40;99.90;;;;;;5091101;28;20048;-69
2022/06/25 00:22:45;;;;;;;3.42;1.20;;;15.40;99.90;;;;;;5074691;28;20047;-69
2022/06/25 00:25:12;;;;;;;2.75;1.30;;;15.40;99.90;;;;;;5091171;28;20478;-69
2022/06/25 00:27:45;;;;;;;7.68;1.73;;;15.40;99.90;;;;;;5056364;28;20040;-69
2022/06/25 00:30:14;;;;;;;1.63;1.00;;;15.30;99.90;;;;;;5090578;28;20048;-69
2022/06/25 00:32:44;;;;;;;3.30;1.30;;;15.30;99.90;;;;;;5091290;28;20518;-69
2022/06/25 00:35:16;;;;;;;3.00;1.50;;;15.40;99.90;;;;;;5089915;28;20098;-69
2022/06/25 00:37:43;;;;;;;7.32;1.40;;;15.40;99.90;;;;;;5095690;28;20127;-69
2022/06/25 00:40:11;;;;;;;5.10;1.70;;;15.50;99.90;;;;;;5062324;28;20385;-69
2022/06/25 00:42:51;;;;;;;2.63;1.35;;;15.50;99.90;;;;;;5096542;28;20047;-69
2022/06/25 00:45:21;;;;;;;2.45;1.38;;;15.60;99.90;;;;;;5077488;28;20040;-69
2022/06/25 00:47:49;;;;;;;5.55;1.50;;;15.60;99.90;;;;;;5095036;28;20127;-69
2022/06/25 00:50:16;;;;;;;2.50;1.30;;;15.60;99.90;;;;;;5095465;28;20047;-69
2022/06/25 00:52:45;;;;;;;6.82;1.73;;;15.80;99.90;;;;;;5096212;28;20530;-69
2022/06/25 00:55:19;;;;;;;2.15;1.52;;;15.80;99.90;;;;;;5077086;28;20076;-69
2022/06/25 00:57:47;;;;;;;2.53;1.33;;;15.80;99.90;;;;;;5095114;28;20040;-69
2022/06/25 01:00:19;;;;;;;2.30;1.55;;;15.80;99.90;;;;;;5078147;28;20098;-69
2022/06/25 01:02:47;;;;;;;2.28;1.58;;;15.80;99.90;;;;;;5095125;28;20051;-69
2022/06/25 01:05:19;;;;;;;5.97;1.75;;;15.80;99.90;;;;;;5094601;28;20098;-69
2022/06/25 01:07:48;;;;;;;2.60;1.53;;;15.80;99.90;;;;;;5077033;28;20048;-68
2022/06/25 01:10:16;;;;;;;2.05;1.23;;;15.90;99.90;;;;;;5094424;28;20060;-68
2022/06/25 01:12:47;;;;;;;4.80;1.48;;;16.10;99.90;;;;;;5094829;28;20047;-69
2022/06/25 01:15:18;;;;;;;2.90;1.42;;;16.00;99.90;;;;;;5076514;28;20062;-68
2022/06/25 01:17:47;;;;;;;4.53;1.33;;;15.80;99.90;;;;;;5076348;28;20034;-68
2022/06/25 01:20:16;;;;;;;4.68;1.30;;;15.80;99.90;;;;;;5094587;28;20129;-69
2022/06/25 01:22:46;;;;;;;10.70;2.28;;;15.70;99.90;;;;;;5094409;28;20028;-69
2022/06/25 01:25:15;;;;;;;2.58;1.58;;;15.60;99.90;;;;;;5095015;28;20044;-68
2022/06/25 01:27:43;;;;;;;2.45;1.30;;;15.50;99.90;;;;;;5076338;28;20492;-68
2022/06/25 01:30:13;;;;;;;8.55;1.73;;;15.40;99.90;;;;;;5075786;28;20056;-68
2022/06/25 01:32:40;;;;;;;2.10;1.30;;;15.20;99.90;;;;;;5094541;28;20409;-68
2022/06/25 01:35:09;;;;;;;3.40;1.40;;;15.10;99.90;;;;;;5076122;28;20055;-69
2022/06/25 01:37:37;;;;;;;4.78;1.50;;;15.10;99.90;;;;;;5094668;28;20040;-69
2022/06/25 01:40:04;;;;;;;2.58;1.30;;;15.10;99.90;;;;;;5094808;28;20104;-68
2022/06/25 01:45:17;;;;;;;8.35;1.45;;;14.90;99.90;;;;;;5094014;28;20043;-68
2022/06/25 01:47:44;;;;;;;4.68;1.52;;;14.80;99.90;;;;;;5093925;28;20491;-69
2022/06/25 01:50:12;;;;;;;3.05;1.45;;;14.90;99.90;;;;;;5094905;28;20051;-69
2022/06/25 01:52:43;;;;;;;5.15;1.63;;;15.00;99.90;;;;;;5095286;28;20052;-69
2022/06/25 01:55:10;;;;;;;3.63;1.42;;;15.00;99.90;;;;;;5093850;28;20040;-69
2022/06/25 01:57:40;;;;;;;4.15;1.67;;;15.00;99.90;;;;;;5093826;28;20085;-69
2022/06/25 02:00:12;;;;;;;1.80;1.20;;;15.10;99.90;;;;;;5093251;28;20032;-69
2022/06/25 02:02:39;;;;;;;2.90;1.85;;;15.10;99.90;;;;;;5075521;28;20032;-69
2022/06/25 02:05:11;;;;;;;6.57;1.40;;;15.20;99.90;;;;;;5075956;28;20051;-69
2022/06/25 02:07:40;;;;;;;1.73;1.50;;;15.20;99.90;;;;;;5094083;28;20402;-68
2022/06/25 02:10:10;;;;;;;4.70;1.60;;;15.20;99.90;;;;;;5093138;28;20101;-69
2022/06/25 02:12:43;;;;;;;4.03;1.85;;;15.10;99.90;;;;;;5075962;28;20048;-68
2022/06/25 02:15:13;;;;;;;3.13;1.80;;;15.00;99.90;;;;;;5079731;28;20048;-69
2022/06/25 02:17:41;;;;;;;5.53;1.73;;;14.80;99.90;;;;;;5086213;28;20035;-69
2022/06/25 02:20:09;;;;;;;2.85;1.23;;;14.70;99.90;;;;;;5113798;28;20043;-69
2022/06/25 02:22:38;;;;;;;3.63;2.08;;;14.80;99.90;;;;;;5113932;28;20425;-68
2022/06/25 02:25:05;;;;;;;5.30;1.60;;;14.90;99.90;;;;;;5130064;27;20043;-68
2022/06/25 02:27:54;;;;;;;5.07;1.70;;;14.80;99.90;;;;;;5095384;28;20126;-69
2022/06/25 02:30:22;;;;;;;2.47;1.67;;;14.70;99.90;;;;;;5109159;28;20050;-68
2022/06/25 02:32:51;;;;;;;3.63;1.48;;;14.80;99.90;;;;;;5113669;28;20425;-69
2022/06/25 02:35:24;;;;;;;2.60;1.30;;;14.70;99.90;;;;;;5096403;28;20044;-69
2022/06/25 02:37:52;;;;;;;3.70;1.70;;;14.60;99.90;;;;;;5112739;28;20039;-68
2022/06/25 02:40:19;;;;;;;4.30;1.50;;;14.60;99.90;;;;;;5100825;28;20368;-68
2022/06/25 02:42:46;;;;;;;6.93;1.63;;;14.50;99.90;;;;;;5076190;28;20047;-69
2022/06/25 02:45:13;;;;;;;4.45;1.77;;;14.60;99.90;;;;;;5092664;28;20090;-69
2022/06/25 02:47:40;;;;;;;5.88;1.52;;;14.60;99.90;;;;;;5092472;28;20032;-69
2022/06/25 02:50:08;;;;;;;2.60;1.60;;;14.50;99.90;;;;;;5091565;28;20044;-69
2022/06/25 02:52:38;;;;;;;5.50;1.70;;;14.70;99.90;;;;;;5092696;28;20526;-69
2022/06/25 02:55:06;;;;;;;6.03;2.10;;;14.70;99.90;;;;;;5093196;28;20036;-69
2022/06/25 03:00:23;;;;;;;2.58;1.63;;;14.80;99.90;;;;;;5092070;28;20582;-69
2022/06/25 03:02:50;;;;;;;5.00;1.50;;;14.70;99.90;;;;;;5093182;28;20098;-68
2022/06/25 03:05:19;;;;;;;4.45;2.00;;;14.60;99.90;;;;;;5094197;28;20070;-68
2022/06/25 03:07:49;;;;;;;2.85;1.77;;;14.60;99.90;;;;;;5075569;28;20040;-68
2022/06/25 03:10:16;;;;;;;2.92;1.50;;;14.60;99.90;;;;;;5091746;28;20048;-69
2022/06/25 03:12:43;;;;;;;2.65;1.45;;;14.70;99.90;;;;;;5074595;28;20478;-69
2022/06/25 03:15:10;;;;;;;3.10;1.40;;;14.60;99.90;;;;;;5064796;28;20044;-69
2022/06/25 03:17:37;;;;;;;4.93;1.73;;;14.60;99.90;;;;;;5054180;28;20036;-69
2022/06/25 03:20:07;;;;;;;2.88;1.80;;;14.70;99.90;;;;;;5072055;28;20037;-69
2022/06/25 03:22:37;;;;;;;3.25;1.48;;;14.70;99.90;;;;;;5070684;28;20061;-69
2022/06/25 03:25:05;;;;;;;2.80;1.70;;;14.70;99.90;;;;;;5088417;28;20549;-68
2022/06/25 03:27:32;;;;;;;5.50;1.52;;;14.70;99.90;;;;;;5074132;28;20387;-68
2022/06/25 03:30:04;;;;;;;5.32;1.75;;;14.80;99.90;;;;;;5072181;28;20080;-68
2022/06/25 03:32:30;;;;;;;6.57;1.77;;;14.80;99.90;;;;;;5071814;28;20040;-69
2022/06/25 03:34:57;;;;;;;2.15;1.52;;;14.70;99.90;;;;;;5071995;28;20039;-68
2022/06/25 03:37:24;;;;;;;4.35;1.60;;;14.40;99.90;;;;;;5071595;28;20044;-69
2022/06/25 03:39:50;;;;;;;4.90;1.90;;;14.30;99.90;;;;;;5071501;28;20456;-69
2022/06/25 03:42:17;;;;;;;3.00;1.50;;;14.40;99.90;;;;;;5072609;28;20067;-68
2022/06/25 03:44:43;;;;;;;3.05;1.77;;;14.50;99.90;;;;;;5073418;28;20129;-69
2022/06/25 03:47:09;;;;;;;5.82;1.70;;;14.60;99.90;;;;;;5076481;28;20032;-69
2022/06/25 03:49:35;;;;;;;4.38;1.50;;;14.60;99.90;;;;;;5090970;28;20051;-69
2022/06/25 03:52:01;;;;;;;3.60;1.80;;;14.60;99.90;;;;;;5092538;28;20055;-69
2022/06/25 03:54:27;;;;;;;2.00;1.40;;;14.60;99.90;;;;;;5075279;28;20509;-69
2022/06/25 03:56:52;;;;;;;4.28;1.60;;;14.60;99.90;;;;;;5093588;28;20036;-69
2022/06/25 03:59:18;;;;;;;3.63;1.50;;;14.50;99.90;;;;;;5092963;28;20048;-69
2022/06/25 04:01:44;;;;;;;3.38;1.60;;;14.40;99.90;;;;;;5092723;28;20040;-69
2022/06/25 04:04:10;;;;;;;4.60;2.10;;;14.30;99.90;;;;;;5093611;28;20051;-69
2022/06/25 04:06:35;;;;;;;4.00;1.58;;;14.40;99.90;;;;;;5093457;28;20036;-69
2022/06/25 04:09:01;;;;;;;3.00;1.60;;;14.50;99.90;;;;;;5075215;28;20036;-69
2022/06/25 04:11:27;;;;;;;4.93;1.80;;;14.70;99.90;;;;;;5092476;28;20495;-69
2022/06/25 04:13:53;;;;;;;3.15;1.80;;;14.70;99.90;;;;;;5104777;28;20050;-69
2022/06/25 04:16:19;;;;;;;3.63;1.80;;;14.70;99.90;;;;;;5093400;28;20036;-69
2022/06/25 04:18:45;;;;;;;6.65;1.42;;;14.80;99.90;;;;;;5093361;28;20075;-69
2022/06/25 04:21:10;;;;;;;3.40;1.55;;;14.90;99.90;;;;;;5093355;28;20066;-69
2022/06/25 04:23:36;;;;;;;5.03;1.92;;;15.00;99.90;;;;;;5093362;28;20606;-69
2022/06/25 04:26:02;;;;;;;2.33;1.60;;;15.00;99.90;;;;;;5093487;28;20119;-68
2022/06/25 04:31:12;;;;;;;2.15;1.50;;;14.60;99.90;;;;;;5092754;28;20082;-69
2022/06/25 04:33:38;;;;;;;3.22;1.40;;;14.50;99.90;;;;;;5093308;28;20452;-69
2022/06/25 04:36:04;;;;;;;1.48;1.38;;;14.70;99.90;;;;;;5093344;28;20584;-69
2022/06/25 04:38:30;;;;;;;2.90;1.70;;;14.90;99.90;;;;;;5092985;28;20499;-69
2022/06/25 04:40:55;;;;;;;2.50;1.58;;;15.00;99.90;;;;;;5092759;28;20048;-69
2022/06/25 04:43:21;;;;;;;8.48;2.33;;;14.90;99.90;;;;;;5097937;28;20039;-69
2022/06/25 04:45:47;;;;;;;3.25;1.27;;;14.30;99.90;;;;;;5099516;28;20415;-68
2022/06/25 04:48:13;;;;;;;4.15;1.52;;;14.20;99.90;;;;;;5092961;28;20040;-69
2022/06/25 04:50:43;;;;;;;2.47;1.60;;;14.20;99.90;;;;;;5092879;28;20044;-69
2022/06/25 04:53:08;;;;;;;11.68;4.75;;;14.20;99.90;;;;;;5092933;28;20148;-69
2022/06/25 04:55:34;;;;;;;4.10;2.20;;;14.30;99.90;;;;;;5091840;28;20065;-69
2022/06/25 04:58:00;;;;;;;6.63;1.73;;;14.40;99.90;;;;;;5092736;28;20391;-69
2022/06/25 05:00:25;;;;;;;7.45;2.13;;;14.60;99.90;;;;;;5092796;28;20044;-70
2022/06/25 05:02:51;;;;;;;4.63;1.65;;;14.60;99.90;;;;;;5092903;28;20051;-70
2022/06/25 05:05:17;;;;;;;3.33;1.83;;;14.80;99.90;;;;;;5091990;28;20051;-69
2022/06/25 05:07:43;;;;;;;7.28;1.90;;;14.90;99.90;;;;;;5092495;28;20047;-69
2022/06/25 05:10:09;;;;;;;3.85;1.80;;;15.00;99.90;;;;;;5092689;28;20043;-70
2022/06/25 05:15:19;;;;;;;4.18;1.90;;;15.10;99.90;;;;;;5103083;28;20043;-70
2022/06/25 05:17:44;;;;;;;3.53;1.60;;;15.20;99.90;;;;;;5094090;28;20407;-69
2022/06/25 05:20:11;;;;;;;3.05;1.52;;;15.40;99.90;;;;;;5092792;28;20119;-70
2022/06/25 05:22:37;;;;;;;4.40;1.77;;;15.60;99.90;;;;;;5094941;28;20040;-69
2022/06/25 05:25:03;;;;;;;2.88;1.48;;;15.70;99.90;;;;;;5096441;28;20036;-70
2022/06/25 05:27:29;;;;;;;3.50;1.88;;;15.70;99.90;;;;;;5096352;28;20044;-69
2022/06/25 05:29:55;;;;;;;3.00;1.73;;;15.80;99.90;;;;;;5096384;28;20044;-70
2022/06/25 05:32:21;;;;;;;2.35;1.42;;;15.90;99.90;;;;;;5095512;28;20499;-70
2022/06/25 05:34:48;;;;;;;1.90;1.50;;;16.00;99.90;;;;;;5096056;28;20036;-69
2022/06/25 05:37:15;;;;;;;3.13;1.77;;;16.20;99.90;;;;;;5095029;28;20044;-69
2022/06/25 05:39:41;;;;;;;4.90;1.63;;;16.40;99.90;;;;;;5096096;28;20044;-70
2022/06/25 05:42:07;;;;;;;6.50;1.70;;;16.70;99.90;;;;;;5096198;28;20127;-69
2022/06/25 05:44:33;;;;;;;3.33;1.50;;;17.00;99.90;;;;;;5096296;28;20546;-70
2022/06/25 05:46:58;;;;;;;2.03;1.75;;;17.20;99.90;;;;;;5096620;28;20028;-69
2022/06/25 05:49:24;;;;;;;2.88;1.30;;;17.50;99.90;;;;;;5106961;28;20137;-70
2022/06/25 05:51:50;;;;;;;2.45;1.33;;;17.70;99.90;;;;;;5095890;28;20043;-70
2022/06/25 05:54:16;;;;;;;3.28;1.50;;;18.10;99.90;;;;;;5095883;28;20043;-70
2022/06/25 05:56:42;;;;;;;3.25;1.40;;;17.80;99.90;;;;;;5096012;28;20036;-70
2022/06/25 05:59:08;;;;;;;2.40;1.60;;;17.50;99.90;;;;;;5095844;28;20134;-69
2022/06/25 06:01:34;;;;;;;2.38;1.27;;;17.30;99.90;;;;;;5095875;28;20459;-69
2022/06/25 06:04:00;;;;;;;4.80;1.50;;;17.40;99.90;;;;;;5095623;28;20249;-69
2022/06/25 06:06:26;;;;;;;4.85;1.27;;;17.50;99.90;;;;;;5095648;28;20036;-70
2022/06/25 06:08:52;;;;;;;4.75;1.65;;;17.70;99.90;;;;;;5095845;28;20487;-69
2022/06/25 06:11:17;;;;;;;6.88;1.80;;;17.70;99.90;;;;;;5095500;28;20052;-70
2022/06/25 06:13:43;;;;;;;5.82;1.40;;;;;;;;;;5095651;28;20046;-69
2022/06/25 06:16:09;;;;;;;2.67;1.25;;;18.90;99.90;;;;;;5095667;28;20083;-69
2022/06/25 06:18:35;;;;;;;5.75;1.35;;;19.10;99.90;;;;;;5081880;28;20060;-69
2022/06/25 06:21:01;;;;;;;3.22;1.40;;;19.10;99.90;;;;;;5083675;28;20395;-70
2022/06/25 06:23:27;;;;;;;4.82;1.40;;;19.20;99.90;;;;;;5095448;28;20044;-70
2022/06/25 06:25:53;;;;;;;6.68;1.85;;;19.40;99.90;;;;;;5095698;28;20040;-69
2022/06/25 06:28:18;;;;;;;3.65;1.58;;;19.60;99.90;;;;;;5077109;28;20046;-70
2022/06/25 06:30:46;;;;;;;3.55;1.50;;;19.70;99.90;;;;;;5094935;28;20444;-70
2022/06/25 06:33:12;;;;;;;2.50;1.52;;;19.70;99.90;;;;;;5076162;28;20036;-70
2022/06/25 06:35:38;;;;;;;3.40;1.63;;;19.80;99.90;;;;;;5094943;28;20124;-70
2022/06/25 06:38:04;;;;;;;5.80;1.80;;;19.90;99.90;;;;;;5094967;28;20556;-70
2022/06/25 06:40:30;;;;;;;5.53;1.50;;;19.80;99.90;;;;;;5094867;28;20123;-71
2022/06/25 06:42:56;;;;;;;6.50;1.58;;;;;;;;;;5095066;28;20048;-70
2022/06/25 06:45:22;;;;;;;4.75;1.13;;;20.00;99.90;;;;;;5095106;28;20563;-71
2022/06/25 06:47:48;;;;;;;2.15;1.30;;;20.20;99.90;;;;;;5094868;28;20040;-71
2022/06/25 06:50:14;;;;;;;2.38;1.60;;;20.20;99.90;;;;;;5078640;28;20172;-71
2022/06/25 06:52:40;;;;;;;3.03;1.45;;;20.40;99.90;;;;;;5103539;28;20047;-70
2022/06/25 06:55:06;;;;;;;3.40;1.27;;;20.40;99.90;;;;;;5096895;28;20040;-71
2022/06/25 06:57:33;;;;;;;3.33;1.45;;;20.50;99.90;;;;;;5115143;28;20035;-70
2022/06/25 06:59:59;;;;;;;3.95;1.40;;;20.70;99.90;;;;;;5115093;28;20067;-69
2022/06/25 07:02:26;;;;;;;7.53;1.75;;;20.50;99.90;;;;;;5114987;28;20390;-70
2022/06/25 07:04:53;;;;;;;1.73;0.98;;;20.80;99.90;;;;;;5112832;28;20093;-70
2022/06/25 07:07:19;;;;;;;2.70;1.00;;;20.70;99.90;;;;;;5099144;28;20040;-70
2022/06/25 07:09:45;;;;;;;5.35;1.15;;;20.50;99.90;;;;;;5094607;28;20052;-71
2022/06/25 07:12:11;;;;;;;2.72;1.42;;;20.50;99.90;;;;;;5094918;28;20105;-70
2022/06/25 07:14:37;;;;;;;5.20;1.08;;;20.50;99.90;;;;;;5105450;28;20043;-70
2022/06/25 07:17:03;;;;;;;10.63;1.30;;;20.50;99.90;;;;;;5094394;28;20138;-70
2022/06/25 07:19:29;;;;;;;2.38;0.98;;;20.50;99.90;;;;;;5076132;28;20028;-70
2022/06/25 07:21:57;;;;;;;4.10;1.00;;;20.70;99.90;;;;;;5094433;28;20040;-70
2022/06/25 07:24:23;;;;;;;4.47;1.40;;;20.60;99.90;;;;;;5076197;28;20051;-71
2022/06/25 07:26:50;;;;;;;4.53;1.17;;;20.40;99.90;;;;;;5094266;28;20141;-71
2022/06/25 07:29:19;;;;;;;1.48;1.10;;;20.70;99.90;;;;;;5109818;28;20391;-70
2022/06/25 07:31:45;;;;;;;1.98;0.95;;;20.60;99.90;;;;;;5094133;28;20082;-71
2022/06/25 07:34:12;;;;;;;3.15;1.15;;;20.50;99.90;;;;;;5076144;28;20071;-70
2022/06/25 07:36:37;;;;;;;8.10;1.20;;;20.60;99.90;;;;;;5093830;28;20096;-71
2022/06/25 07:39:06;;;;;;;3.53;1.35;;;20.80;99.90;;;;;;5090101;28;20039;-70
2022/06/25 07:41:42;;;;;;;2.75;1.33;;;20.90;99.90;;;;;;5074842;28;20051;-69
2022/06/25 07:44:13;;;;;;;5.05;1.45;;;21.00;99.90;;;;;;5075802;28;20039;-70
2022/06/25 07:46:40;;;;;;;7.88;1.20;;;20.90;99.90;;;;;;5066378;28;20068;-69
2022/06/25 07:49:09;;;;;;;2.38;1.10;;;21.10;99.90;;;;;;5073628;28;20037;-70
2022/06/25 07:54:22;;;;;;;3.28;1.58;;;21.20;99.90;;;;;;5071024;28;20523;-70
2022/06/25 07:56:48;;;;;;;1.13;0.90;;;21.30;99.90;;;;;;5071252;28;20499;-69
2022/06/25 07:59:14;;;;;;;2.63;1.30;;;21.20;99.90;;;;;;5071176;28;20029;-69
2022/06/25 08:01:40;;;;;;;1.30;0.95;;;21.20;99.90;;;;;;5070851;28;20100;-70
2022/06/25 08:04:06;;;;;;;3.08;1.27;;;21.20;99.90;;;;;;5070969;28;20032;-69
2022/06/25 08:06:37;;;;;;;2.58;1.10;;;21.50;99.90;;;;;;5070118;28;20055;-70
2022/06/25 08:09:04;;;;;;;2.63;1.00;;;21.60;99.90;;;;;;5070303;28;20526;-70
2022/06/25 08:11:31;;;;;;;3.08;1.33;;;21.60;99.90;;;;;;5054032;28;20158;-70
2022/06/25 08:13:57;;;;;;;2.60;1.52;;;21.70;99.90;;;;;;5072387;28;20115;-70
2022/06/25 08:16:25;;;;;;;2.70;1.23;;;21.60;99.90;;;;;;5098531;28;20055;-70
2022/06/25 08:18:52;;;;;;;2.90;0.90;;;21.90;99.90;;;;;;5090972;28;20437;-70
2022/06/25 08:21:18;;;;;;;6.38;1.10;;;;;;;;;;5091677;28;20044;-70
2022/06/25 08:23:51;;;;;;;2.75;1.30;;;22.20;99.90;;;;;;5089855;28;20807;-70
2022/06/25 08:26:17;;;;;;;2.70;1.02;;;22.40;99.90;;;;;;5090982;28;20555;-70
2022/06/25 08:28:44;;;;;;;2.85;1.00;;;22.20;99.90;;;;;;5090703;28;20126;-70
2022/06/25 08:31:11;;;;;;;3.50;1.23;;;22.20;99.90;;;;;;5072886;28;20051;-70
2022/06/25 08:33:37;;;;;;;2.08;0.88;;;22.40;99.90;;;;;;5090737;28;20043;-69
2022/06/25 08:36:04;;;;;;;1.92;0.98;;;22.30;99.90;;;;;;5091179;28;20048;-69
2022/06/25 08:38:30;;;;;;;4.65;1.45;;;22.40;99.90;;;;;;5090221;28;20055;-69
2022/06/25 08:40:58;;;;;;;3.25;0.90;;;22.40;99.90;;;;;;5090795;28;20052;-69
2022/06/25 08:43:24;;;;;;;3.28;0.90;;;22.30;99.90;;;;;;5091594;28;20132;-69
2022/06/25 08:45:54;;;;;;;1.30;0.85;;;22.40;99.90;;;;;;5093840;28;20039;-70
2022/06/25 08:48:30;;;;;;;2.92;1.10;;;22.60;99.90;;;;;;5099685;28;20097;-70
2022/06/25 08:50:57;;;;;;;0.70;0.70;;;22.50;99.90;;;;;;5091762;28;20052;-69
2022/06/25 08:53:23;;;;;;;5.30;1.05;;;23.00;99.90;;;;;;5091693;28;20043;-69
2022/06/25 08:55:50;;;;;;;5.25;1.05;;;23.00;99.90;;;;;;5090314;28;20051;-69
2022/06/25 08:58:16;;;;;;;3.50;1.15;;;;;;;;;;5094014;28;20495;-69
2022/06/25 09:00:45;;;;;;;6.65;1.13;;;23.10;99.90;;;;;;5075466;28;20500;-69
2022/06/25 09:03:11;;;;;;;2.05;1.10;;;23.20;99.90;;;;;;5094138;28;20051;-69
2022/06/25 09:05:42;;;;;;;2.13;1.30;;;23.10;99.90;;;;;;5094173;28;20040;-69
2022/06/25 09:08:11;;;;;;;2.20;1.00;;;22.70;99.90;;;;;;5094029;28;20089;-70
2022/06/25 09:10:39;;;;;;;4.68;1.30;;;23.20;99.90;;;;;;5093876;28;20054;-69
2022/06/25 09:13:09;;;;;;;4.35;1.38;;;23.20;99.90;;;;;;5076207;28;20506;-69
2022/06/25 09:15:43;;;;;;;4.07;1.33;;;23.40;99.90;;;;;;5075868;28;20088;-70
2022/06/25 09:18:11;;;;;;;5.90;1.40;;;23.30;99.90;;;;;;5105262;28;20055;-70
2022/06/25 09:21:04;;;;;;;2.63;1.42;;;23.10;99.90;;;;;;5093377;28;20051;-69
2022/06/25 09:23:33;;;;;;;2.55;1.30;;;23.00;99.90;;;;;;5092102;28;20044;-70
2022/06/25 09:26:10;;;;;;;2.28;1.23;;;23.00;99.90;;;;;;5093880;28;20042;-71
2022/06/25 09:28:42;;;;;;;5.00;1.88;;;23.10;99.90;;;;;;5093199;28;20032;-71
2022/06/25 09:31:09;;;;;;;2.90;1.35;;;23.20;99.90;;;;;;5095303;28;20055;-70
2022/06/25 09:33:38;;;;;;;4.13;1.55;;;23.50;99.90;;;;;;5096421;28;20036;-71
2022/06/25 09:36:06;;;;;;;5.55;1.42;;;23.60;99.90;;;;;;5095521;28;20047;-72
2022/06/25 09:38:32;;;;;;;2.42;1.30;;;;;;;;;;5094004;28;20046;-71
2022/06/25 09:41:00;;;;;;;4.30;1.15;;;24.00;99.90;;;;;;5094160;28;20040;-72
2022/06/25 09:43:27;;;;;;;4.22;1.55;;;24.20;99.90;;;;;;5094124;28;20047;-71
2022/06/25 09:45:56;;;;;;;2.03;1.20;;;23.90;99.90;;;;;;5093673;28;20040;-70
2022/06/25 09:48:28;;;;;;;4.35;1.33;;;23.90;99.90;;;;;;5094079;28;20075;-71
2022/06/25 09:51:14;;;;;;;2.40;1.40;;;24.30;99.90;;;;;;5094959;28;20051;-71
2022/06/25 09:53:54;;;;;;;5.57;1.40;;;23.90;99.90;;;;;;5095868;28;20032;-70
2022/06/25 09:56:23;;;;;;;5.93;1.38;;;23.80;99.90;;;;;;5095896;28;20071;-70
2022/06/25 09:58:50;;;;;;;4.28;1.42;;;23.90;99.90;;;;;;5076366;28;20036;-69
2022/06/25 10:01:18;;;;;;;3.33;1.73;;;23.90;99.90;;;;;;5094593;28;20433;-70
2022/06/25 10:03:45;;;;;;;3.72;1.63;;;23.70;99.90;;;;;;5075289;28;20509;-69
2022/06/25 10:06:14;;;;;;;2.80;1.25;;;23.80;99.90;;;;;;5093661;28;20038;-70
2022/06/25 10:08:47;;;;;;;3.85;1.50;;;23.80;99.90;;;;;;5091343;28;20067;-70
2022/06/25 10:11:13;;;;;;;5.78;1.60;;;23.80;99.90;;;;;;5075347;28;20062;-70
2022/06/25 10:13:41;;;;;;;3.67;1.80;;;24.00;99.90;;;;;;5094163;28;20132;-70
2022/06/25 10:16:07;;;;;;;4.97;1.50;;;23.80;99.90;;;;;;5095286;28;20423;-70
2022/06/25 10:18:35;;;;;;;2.60;1.65;;;24.20;99.90;;;;;;5094434;28;20040;-69
2022/06/25 10:21:01;;;;;;;4.85;1.75;;;24.10;99.90;;;;;;5095121;28;20411;-69
2022/06/25 10:23:28;;;;;;;4.50;2.13;;;24.20;99.90;;;;;;5093188;28;20039;-69
2022/06/25 10:25:54;;;;;;;3.83;1.70;;;24.20;99.90;;;;;;5093298;28;20122;-68
2022/06/25 10:28:31;;;;;;;8.23;3.10;;;24.30;99.90;;;;;;5093248;28;20540;-69
2022/06/25 10:30:57;;;;;;;2.50;1.48;;;24.20;99.90;;;;;;5094533;28;20134;-68
2022/06/25 10:33:35;;;;;;;3.10;1.50;;;24.20;99.90;;;;;;5094693;28;20036;-69
2022/06/25 10:36:04;;;;;;;25.20;7.65;;;24.40;99.90;;;;;;5095200;28;20044;-69
2022/06/25 10:38:30;;;;;;;3.13;1.40;;;24.60;99.90;;;;;;5095044;28;20101;-69
2022/06/25 10:42:58;;;;;;;2.03;1.50;;;24.40;99.90;;;;;;5093242;28;20047;-68
2022/06/25 10:43:54;;;;;;;4.22;1.83;;;24.40;99.90;;;;;;5093071;28;20093;-69
2022/06/25 10:46:20;;;;;;;;;;;24.60;99.90;;;;;;5076228;28;20043;-69
2022/06/25 10:48:57;;;;;;;1.10;1.02;;;25.00;99.90;;;;;;5092956;28;19934;-68
2022/06/25 10:51:33;;;;;;;2.30;1.20;;;24.60;99.90;;;;;;5094312;28;20054;-69
2022/06/25 10:54:02;;;;;;;4.78;1.42;;;24.70;99.90;;;;;;5094402;28;20101;-68
2022/06/25 10:56:46;;;;;;;6.75;1.20;;;24.80;99.90;;;;;;5092543;28;20048;-68
2022/06/25 10:59:41;;;;;;;2.38;1.00;;;24.80;99.90;;;;;;5075032;28;20425;-67
2022/06/25 11:02:10;;;;;;;1.50;1.10;;;24.70;99.90;;;;;;5092415;28;20043;-68
2022/06/25 11:04:39;;;;;;;3.05;1.40;;;24.70;99.90;;;;;;5073705;28;20039;-68
2022/06/25 11:07:19;;;;;;;3.20;1.58;;;24.60;99.90;;;;;;5092756;28;20099;-68
2022/06/25 11:09:57;;;;;;;1.20;1.10;;;24.40;99.90;;;;;;5073717;28;20503;-69
2022/06/25 11:12:24;;;;;;;1.30;1.10;;;24.70;99.90;;;;;;5075616;28;20097;-69
2022/06/25 11:15:10;;;;;;;1.42;1.10;;;25.00;99.90;;;;;;5093778;28;20039;-70
2022/06/25 11:17:36;;;;;;;1.95;0.88;;;25.00;99.90;;;;;;5075717;28;20398;-70
2022/06/25 11:20:08;;;;;;;2.60;1.10;;;25.00;99.90;;;;;;5093936;28;20075;-70
2022/06/25 11:22:44;;;;;;;2.45;1.55;;;25.00;99.90;;;;;;5094362;28;20028;-70
2022/06/25 11:30:39;;;;;;;1.88;1.10;;;24.90;99.90;;;;;;5093851;28;20109;-70
2022/06/25 11:33:09;;;;;;;1.55;1.10;;;25.00;99.90;;;;;;5093878;28;20468;-70
2022/06/25 11:35:44;;;;;;;2.28;0.80;;;24.90;99.90;;;;;;5093754;28;20127;-70
2022/06/25 11:38:21;;;;;;;3.20;1.10;;;25.20;99.90;;;;;;5075654;28;20072;-71
2022/06/25 11:40:47;;;;;;;3.45;1.23;;;25.30;99.60;;;;;;5073351;28;20093;-70
2022/06/25 11:43:14;;;;;;;2.83;1.27;;;25.20;99.50;;;;;;5073799;28;20048;-71
2022/06/25 11:45:59;;;;;;;2.45;1.10;;;25.50;99.90;;;;;;5073415;28;20090;-71
2022/06/25 11:48:29;;;;;;;2.38;1.20;;;25.00;99.10;;;;;;5073290;28;20392;-70
2022/06/25 11:50:58;;;;;;;9.60;1.02;;;25.20;99.90;;;;;;5073065;28;20505;-71
2022/06/25 11:53:24;;;;;;;3.75;1.10;;;25.70;99.90;;;;;;5073217;28;20399;-71
2022/06/25 11:56:01;;;;;;;10.43;1.70;;;25.80;99.50;;;;;;5073389;28;20028;-71
2022/06/25 11:58:32;;;;;;;3.45;1.20;;;25.90;99.90;;;;;;5073144;28;20102;-70
2022/06/25 12:00:59;;;;;;;5.43;1.05;;;25.60;98.90;;;;;;5073032;28;20036;-71
2022/06/25 12:03:29;;;;;;;4.53;1.20;;;25.50;99.60;;;;;;5073206;28;20094;-71
2022/06/25 12:05:56;;;;;;;1.13;0.77;;;25.40;98.30;;;;;;5073274;28;20119;-71
2022/06/25 12:08:26;;;;;;;2.20;1.13;;;25.60;99.20;;;;;;5073176;28;20411;-69
2022/06/25 12:10:53;;;;;;;3.08;1.00;;;25.60;98.20;;;;;;5073224;28;20565;-70
2022/06/25 12:13:20;;;;;;;1.58;0.90;;;25.80;98.80;;;;;;5072975;28;20040;-70
2022/06/25 12:15:46;;;;;;;2.90;0.88;;;25.90;99.00;;;;;;5072990;28;20051;-71
2022/06/25 12:18:13;;;;;;;1.73;1.10;;;26.10;99.50;;;;;;5072994;28;20032;-69
2022/06/25 12:20:56;;;;;;;4.70;0.98;;;26.20;98.40;;;;;;5073047;28;20064;-71
2022/06/25 12:23:23;;;;;;;3.80;1.02;;;25.90;97.80;;;;;;5073121;28;20055;-70
2022/06/25 12:25:49;;;;;;;3.55;1.25;;;25.70;98.10;;;;;;5072995;28;20124;-70
2022/06/25 12:28:15;;;;;;;3.08;1.13;;;25.50;97.30;;;;;;5072964;28;20135;-71
2022/06/25 12:30:41;;;;;;;1.25;0.80;;;25.60;99.00;;;;;;5072821;28;20040;-71
2022/06/25 12:33:13;;;;;;;1.63;1.00;;;25.40;98.80;;;;;;5076288;28;20588;-70
2022/06/25 12:35:48;;;;;;;2.22;1.00;;;25.40;99.10;;;;;;5076924;28;20496;-70
2022/06/25 12:38:15;;;;;;;3.63;1.10;;;25.50;98.80;;;;;;5076918;28;20454;-70
2022/06/25 12:40:48;;;;;;;5.93;1.00;;;25.30;98.30;;;;;;5076935;28;20036;-70
2022/06/25 12:43:15;;;;;;;4.75;0.95;;;25.30;98.60;;;;;;5076976;28;20055;-70
2022/06/25 12:45:43;;;;;;;7.72;1.10;;;25.30;98.70;;;;;;5076793;28;20037;-70
2022/06/25 12:48:09;;;;;;;3.05;1.13;;;25.30;99.40;;;;;;5076756;28;20021;-70
2022/06/25 12:50:37;;;;;;;3.25;1.02;;;25.10;98.00;;;;;;5076467;28;20510;-70
2022/06/25 12:53:09;;;;;;;1.92;0.98;;;24.90;99.00;;;;;;5058637;28;20439;-71
2022/06/25 12:55:36;;;;;;;1.85;0.75;;;25.00;99.20;;;;;;5076785;28;20161;-70
2022/06/25 12:58:12;;;;;;;2.00;1.05;;;24.80;98.60;;;;;;5076651;28;20096;-71
2022/06/25 13:00:39;;;;;;;3.17;1.00;;;24.70;99.10;;;;;;5076412;28;20089;-70
2022/06/25 13:03:05;;;;;;;2.17;0.93;;;24.60;98.50;;;;;;5076286;28;20123;-70
2022/06/25 13:05:32;;;;;;;4.70;1.08;;;24.60;99.00;;;;;;5076250;28;20048;-70
2022/06/25 13:07:58;;;;;;;2.50;1.02;;;24.60;99.00;;;;;;5076250;28;20036;-71
2022/06/25 13:10:24;;;;;;;1.35;0.88;;;24.60;99.30;;;;;;5076062;28;20083;-70
2022/06/25 13:12:52;;;;;;;3.25;1.10;;;24.70;98.90;;;;;;5076123;28;20071;-70